LRBSLRCV

Guest
Details From LRBS - Bucarest Baneasa
To LRCV - CRAIOVA
Flight Number -
Tags generated
Created
Modified
Stats Distance 96 nm / 177 km
Max Altitude 4,200 ft / 1,280 m
Waypoints 3
Social Downloads 0
Likes 0
Share VATSIM

Download

Looking for another format? Having issues loading an existing format? Contact us
Advertisement - Login to hide

Notes

Basic altitude profile: - Ascent Rate: 2500ft/min - Ascent Speed: 250kts - Cruise Altitude: 35000ft - Cruise Speed: 420kts - Descent Rate: 1500ft/min - Descent Speed: 250kts

Route

LRBS PEMOK LRCV

ID Type Via Altitude Latitude Longitude Leg Dist Tot Dist Heading (true) Name
O LRBS APT - 0 ft / 0 m 44.50319˚ 26.10211˚ - 0 nm - Bucarest Baneasa
PEMOK FIX - 4,200 ft / 1,280 m 44.36469˚ 24.34846˚ 75 nm 75 nm 264° / 263° -
O LRCV APT - 0 ft / 0 m 44.31815˚ 23.88854˚ 19 nm 95 nm 262° / 262° CRAIOVA

Altitude Profile

Advertisement - Login to hide

LRBS

Details ICAO LRBS (BBU)
Name Bucarest Baneasa
Region Romania
Timezone Europe/Bucharest (UTC+2.0)
Stats Elevation 297 ft / 91 m (AMSL)
Location 44.503193° 26.102113°
Runways 1
Magnetic Variation 5.596° E

METAR

LRBS 170000Z 26007KT 240V300 CAVOK 06/05 Q1010 NOSIG

Decode

TAF

TAF TAF LRBS 162300Z 1700/1724 25010KT CAVOK BECMG 1700/1702 5000 -RA BR BKN015 OVC035 BECMG 1704/1706 06014KT BECMG 1715/1717 26006KT 5000 -RASN -SN BKN010 OVC030 TEMPO 1718/1724 3000 -SN BKN005 OVC025

Decode

Departure Runways

ID Width Length Bearing (true) Bearing (mag) Surface Threshold Offset Overrun Length
07 148 ft / 45 m 10,480 ft / 3,194 m 73.93° 68.33° Concrete 787 ft / 240 m 0 ft / 0 m
25 148 ft / 45 m 10,480 ft / 3,194 m 253.96° 248.36° Concrete 2,609 ft / 795 m 0 ft / 0 m

LRCV

Details ICAO LRCV (CRA)
Name CRAIOVA
Region Romania
Timezone Europe/Bucharest (UTC+2.0)
Stats Elevation 626 ft / 191 m (AMSL)
Location 44.318152° 23.888541°
Runways 1
Magnetic Variation 5.218° E

METAR

LRCV 170000Z AUTO 20004KT FEW045/// BKN060/// 04/01 Q1010

Decode

TAF

Not found

Destination Runways

ID Width Length Bearing (true) Bearing (mag) Surface Threshold Offset Overrun Length
09 148 ft / 45 m 8,146 ft / 2,483 m 88.92° 83.70° Concrete 0 ft / 0 m 0 ft / 0 m
27 148 ft / 45 m 8,146 ft / 2,483 m 268.94° 263.72° Concrete 0 ft / 0 m 0 ft / 0 m